createdAt,value
2018-11-29T00:00:09.671Z,15.47
2018-11-29T00:02:37.903Z,16.27
2018-11-29T00:05:06.840Z,14.23
2018-11-29T00:07:35.704Z,15.80
2018-11-29T00:10:03.940Z,15.37
2018-11-29T00:12:32.225Z,14.77
2018-11-29T00:15:00.404Z,14.40
2018-11-29T00:17:29.676Z,15.00
2018-11-29T00:19:57.878Z,15.53
2018-11-29T00:22:26.027Z,13.57
2018-11-29T00:24:54.203Z,13.97
2018-11-29T00:27:22.583Z,16.20
2018-11-29T00:29:50.901Z,15.90
2018-11-29T00:32:19.327Z,14.33
2018-11-29T00:34:47.604Z,16.40
2018-11-29T00:37:15.906Z,14.60
2018-11-29T00:39:44.274Z,16.70
2018-11-29T00:42:12.507Z,18.03
2018-11-29T00:44:40.668Z,16.27
2018-11-29T00:47:08.900Z,15.33
2018-11-29T00:49:37.241Z,15.90
2018-11-29T00:52:05.437Z,16.67
2018-11-29T00:54:33.659Z,18.53
2018-11-29T00:57:01.832Z,17.87
2018-11-29T00:59:30.227Z,17.50
2018-11-29T01:02:00.272Z,16.90
2018-11-29T01:04:29.084Z,17.20
2018-11-29T01:06:57.381Z,16.90
2018-11-29T01:09:25.520Z,17.13
2018-11-29T01:11:53.698Z,15.23
2018-11-29T01:14:21.989Z,15.67
2018-11-29T01:16:50.145Z,17.40
2018-11-29T01:19:18.336Z,16.33
2018-11-29T01:21:46.517Z,15.90
2018-11-29T01:24:14.809Z,16.47
2018-11-29T01:26:49.697Z,19.83
2018-11-29T01:29:17.855Z,17.60
2018-11-29T01:31:46.172Z,15.57
2018-11-29T01:34:14.447Z,18.07
2018-11-29T01:36:42.625Z,15.77
2018-11-29T01:39:10.794Z,17.33
2018-11-29T01:41:39.004Z,15.23
2018-11-29T01:44:09.860Z,16.40
2018-11-29T01:46:38.017Z,15.77
2018-11-29T01:49:06.173Z,17.23
2018-11-29T01:51:34.381Z,17.03
2018-11-29T01:54:02.748Z,19.00
2018-11-29T01:56:30.915Z,16.43
2018-11-29T01:58:59.272Z,17.47
2018-11-29T02:01:27.434Z,17.23
2018-11-29T02:03:55.583Z,19.60
2018-11-29T02:06:24.102Z,18.13
2018-11-29T02:08:52.262Z,20.13
2018-11-29T02:11:20.552Z,17.03
2018-11-29T02:13:48.711Z,18.73
2018-11-29T02:16:17.039Z,19.87
2018-11-29T02:18:47.470Z,15.80
2018-11-29T02:21:15.743Z,19.30
2018-11-29T02:23:43.990Z,16.17
2018-11-29T02:26:12.165Z,17.20
2018-11-29T02:28:45.752Z,15.93
2018-11-29T02:31:14.342Z,14.00
2018-11-29T02:33:42.512Z,15.90
2018-11-29T02:36:10.808Z,15.33
2018-11-29T02:38:39.073Z,14.53
2018-11-29T02:41:07.291Z,18.27
2018-11-29T02:43:35.844Z,14.83
2018-11-29T02:46:04.083Z,17.33
2018-11-29T02:48:32.329Z,17.40
2018-11-29T02:51:00.481Z,19.80
2018-11-29T02:53:28.757Z,15.37
2018-11-29T02:56:03.152Z,18.10
2018-11-29T02:58:31.341Z,15.77
2018-11-29T03:00:59.717Z,16.83
2018-11-29T03:03:27.900Z,16.90
2018-11-29T03:05:56.077Z,15.70
2018-11-29T03:08:24.246Z,17.63
2018-11-29T03:10:52.399Z,19.00
2018-11-29T03:13:21.126Z,14.87
2018-11-29T03:15:49.326Z,15.67
2018-11-29T03:18:17.489Z,18.27
2018-11-29T03:20:45.926Z,15.07
2018-11-29T03:23:14.197Z,19.43
2018-11-29T03:25:42.541Z,17.20
2018-11-29T03:28:10.744Z,17.53
2018-11-29T03:30:38.993Z,16.17
2018-11-29T03:33:07.177Z,19.53
2018-11-29T03:35:35.556Z,19.30
2018-11-29T03:38:03.893Z,18.67
2018-11-29T03:40:32.063Z,18.63
2018-11-29T03:43:00.221Z,18.20
2018-11-29T03:45:28.402Z,22.00
2018-11-29T03:47:56.682Z,20.77
2018-11-29T03:50:24.845Z,18.30
2018-11-29T03:52:53.135Z,18.53
2018-11-29T03:55:21.479Z,17.23
2018-11-29T03:57:49.866Z,18.07
2018-11-29T04:00:18.448Z,19.97
2018-11-29T04:02:47.377Z,18.60
2018-11-29T04:05:15.543Z,16.43
2018-11-29T04:07:43.735Z,17.83
2018-11-29T04:10:12.884Z,17.87
2018-11-29T04:12:41.246Z,17.40
2018-11-29T04:15:10.598Z,17.87
2018-11-29T04:17:40.837Z,16.83
2018-11-29T04:20:08.846Z,17.43
2018-11-29T04:22:37.048Z,16.57
2018-11-29T04:25:05.971Z,16.80
2018-11-29T04:27:34.125Z,17.60
2018-11-29T04:30:02.296Z,18.37
2018-11-29T04:32:30.456Z,22.17
2018-11-29T04:34:58.617Z,22.80
2018-11-29T04:37:26.815Z,19.40
2018-11-29T04:39:54.953Z,20.40
2018-11-29T04:42:23.181Z,22.50
2018-11-29T04:44:51.598Z,20.47
2018-11-29T04:47:19.757Z,20.23
2018-11-29T04:49:48.001Z,19.17
2018-11-29T04:52:16.313Z,21.20
2018-11-29T04:54:44.494Z,20.00
2018-11-29T04:57:12.752Z,19.13
2018-11-29T04:59:40.917Z,22.00
2018-11-29T05:02:09.071Z,21.73
2018-11-29T05:04:37.292Z,23.77
2018-11-29T05:07:05.478Z,22.50
2018-11-29T05:09:33.662Z,20.23
2018-11-29T05:12:01.840Z,23.30
2018-11-29T05:14:30.147Z,20.73
2018-11-29T05:16:58.329Z,22.90
2018-11-29T05:19:26.633Z,19.97
2018-11-29T05:21:55.046Z,21.60
2018-11-29T05:24:23.246Z,22.03
2018-11-29T05:26:51.566Z,22.73
2018-11-29T05:29:19.713Z,20.93
2018-11-29T05:31:47.932Z,25.60
2018-11-29T05:34:16.058Z,23.50
2018-11-29T05:36:44.354Z,21.37
2018-11-29T05:39:12.553Z,23.77
2018-11-29T05:41:40.789Z,23.23
2018-11-29T05:44:08.968Z,23.73
2018-11-29T05:46:37.159Z,21.57
2018-11-29T05:49:05.310Z,22.70
2018-11-29T05:51:33.914Z,24.13
2018-11-29T05:54:02.065Z,25.20
2018-11-29T05:56:30.314Z,28.83
2018-11-29T05:58:58.480Z,24.97
2018-11-29T06:01:30.390Z,24.13
2018-11-29T06:03:58.539Z,24.73
2018-11-29T06:06:26.779Z,30.20
2018-11-29T06:08:55.036Z,27.10
2018-11-29T06:11:23.409Z,26.63
2018-11-29T06:13:51.614Z,27.30
2018-11-29T06:16:19.780Z,28.87
2018-11-29T06:18:48.272Z,26.60
2018-11-29T06:21:16.451Z,27.10
2018-11-29T06:23:44.645Z,26.17
2018-11-29T06:26:12.891Z,27.83
2018-11-29T06:28:41.244Z,25.00
2018-11-29T06:31:09.429Z,27.20
2018-11-29T06:33:37.573Z,25.30
2018-11-29T06:36:05.705Z,29.30
2018-11-29T06:38:34.043Z,25.37
2018-11-29T06:41:02.231Z,28.67
2018-11-29T06:43:38.093Z,26.47
2018-11-29T06:46:07.298Z,26.43
2018-11-29T06:48:35.487Z,30.30
2018-11-29T06:51:03.788Z,30.60
2018-11-29T06:53:37.323Z,28.57
2018-11-29T06:56:05.547Z,26.43
2018-11-29T06:58:33.971Z,30.70
2018-11-29T07:01:02.120Z,25.63
2018-11-29T07:03:30.347Z,32.37
2018-11-29T07:05:58.632Z,30.03
2018-11-29T07:08:26.992Z,26.13
2018-11-29T07:10:55.397Z,27.07
2018-11-29T07:13:23.576Z,27.33
2018-11-29T07:15:51.780Z,27.10
2018-11-29T07:18:20.093Z,22.83
2018-11-29T07:20:59.500Z,25.77
2018-11-29T07:23:28.131Z,26.90
2018-11-29T07:25:56.420Z,25.93
2018-11-29T07:28:24.589Z,26.20
2018-11-29T07:30:52.862Z,25.00
2018-11-29T07:33:21.094Z,28.77
2018-11-29T07:35:49.286Z,26.80
2018-11-29T07:38:17.459Z,26.20
2018-11-29T07:40:45.779Z,25.83
2018-11-29T07:43:13.987Z,24.97
2018-11-29T07:45:42.175Z,25.13
2018-11-29T07:48:10.391Z,24.03
2018-11-29T07:50:38.639Z,22.60
2018-11-29T07:53:06.838Z,23.70
2018-11-29T07:55:54.933Z,26.13
2018-11-29T07:58:23.205Z,23.43
2018-11-29T08:00:51.377Z,26.60
2018-11-29T08:03:20.293Z,26.17
2018-11-29T08:05:48.472Z,24.87
2018-11-29T08:08:16.668Z,21.57
2018-11-29T08:10:44.899Z,26.63
2018-11-29T08:13:13.203Z,21.87
2018-11-29T08:15:41.422Z,24.43
2018-11-29T08:18:09.683Z,23.80
2018-11-29T08:20:37.872Z,29.83
2018-11-29T08:23:06.241Z,23.97
2018-11-29T08:25:34.393Z,23.60
2018-11-29T08:28:02.570Z,24.40
2018-11-29T08:30:30.768Z,22.70
2018-11-29T08:32:58.959Z,23.60
2018-11-29T08:35:28.375Z,22.27
2018-11-29T08:37:56.681Z,25.90
2018-11-29T08:40:25.017Z,32.37
2018-11-29T08:42:53.303Z,26.50
2018-11-29T08:45:21.735Z,23.57
2018-11-29T08:47:49.948Z,24.53
2018-11-29T08:50:18.221Z,22.80
2018-11-29T08:52:46.790Z,25.77
2018-11-29T08:55:17.859Z,26.37
2018-11-29T08:57:46.614Z,26.33
2018-11-29T09:00:18.608Z,24.70
2018-11-29T09:02:47.988Z,21.90
2018-11-29T09:05:19.227Z,23.23
2018-11-29T09:07:48.242Z,19.37
2018-11-29T09:10:18.913Z,21.90
2018-11-29T09:12:47.147Z,22.47
2018-11-29T09:15:16.058Z,21.20
2018-11-29T09:17:46.298Z,23.67
2018-11-29T09:20:18.427Z,20.87
2018-11-29T09:22:47.708Z,20.70
2018-11-29T09:25:16.892Z,25.27
2018-11-29T09:27:45.102Z,22.90
2018-11-29T09:30:19.027Z,20.63
2018-11-29T09:32:48.322Z,25.80
2018-11-29T09:35:16.602Z,23.87
2018-11-29T09:37:44.775Z,22.40
2018-11-29T09:40:15.777Z,24.00
2018-11-29T09:42:44.387Z,22.70
2018-11-29T09:45:14.772Z,21.73
2018-11-29T09:47:43.658Z,20.83
2018-11-29T09:50:12.812Z,21.80
2018-11-29T09:52:41.267Z,23.33
2018-11-29T09:55:11.536Z,23.90
2018-11-29T09:57:39.712Z,20.00
2018-11-29T10:00:27.204Z,18.93
2018-11-29T10:02:54.949Z,23.43
2018-11-29T10:05:23.133Z,20.97
2018-11-29T10:07:51.511Z,21.30
2018-11-29T10:10:19.691Z,21.20
2018-11-29T10:12:47.914Z,19.93
2018-11-29T10:15:16.222Z,21.43
2018-11-29T10:17:44.415Z,18.13
2018-11-29T10:20:13.036Z,22.40
2018-11-29T10:22:41.933Z,22.17
2018-11-29T10:25:11.500Z,19.33
2018-11-29T10:27:39.872Z,20.37
2018-11-29T10:30:17.661Z,20.97
2018-11-29T10:32:45.939Z,22.17
2018-11-29T10:35:14.103Z,19.50
2018-11-29T10:37:42.764Z,20.30
2018-11-29T10:40:11.273Z,22.97
2018-11-29T10:42:39.660Z,21.03
2018-11-29T10:45:16.305Z,21.50
2018-11-29T10:47:51.975Z,18.33
2018-11-29T10:50:14.565Z,21.70
2018-11-29T10:52:42.794Z,22.07
2018-11-29T10:55:14.973Z,20.27
2018-11-29T10:57:43.409Z,19.10
2018-11-29T11:00:20.919Z,20.83
2018-11-29T11:02:54.370Z,23.23
2018-11-29T11:05:22.792Z,20.80
2018-11-29T11:07:51.086Z,22.23
2018-11-29T11:10:19.406Z,21.80
2018-11-29T11:12:48.172Z,17.63
2018-11-29T11:15:16.620Z,22.10
2018-11-29T11:17:44.817Z,23.07
2018-11-29T11:20:13.224Z,22.53
2018-11-29T11:22:41.466Z,21.70
2018-11-29T11:25:10.631Z,20.53
2018-11-29T11:27:38.838Z,18.97
2018-11-29T11:30:14.330Z,19.30
2018-11-29T11:32:48.324Z,21.17
2018-11-29T11:35:16.534Z,21.93
2018-11-29T11:37:44.865Z,22.67
2018-11-29T11:40:14.766Z,18.43
2018-11-29T11:42:43.254Z,17.57
2018-11-29T11:45:19.042Z,19.43
2018-11-29T11:47:47.374Z,19.57
2018-11-29T11:50:17.490Z,17.97
2018-11-29T11:52:45.761Z,17.30
2018-11-29T11:55:18.852Z,20.23
2018-11-29T11:57:45.994Z,19.73
2018-11-29T12:00:15.522Z,19.70
2018-11-29T12:02:44.236Z,20.50
2018-11-29T12:05:12.772Z,19.93
2018-11-29T12:07:41.001Z,24.03
2018-11-29T12:10:10.577Z,19.17
2018-11-29T12:12:38.753Z,20.20
2018-11-29T12:15:08.849Z,21.43
2018-11-29T12:17:37.369Z,22.33
2018-11-29T12:20:08.961Z,19.43
2018-11-29T12:22:37.353Z,18.77
2018-11-29T12:25:06.514Z,21.10
2018-11-29T12:27:34.690Z,20.10
2018-11-29T12:30:03.125Z,20.37
2018-11-29T12:32:31.349Z,20.10
2018-11-29T12:34:59.601Z,22.07
2018-11-29T12:37:27.795Z,20.07
2018-11-29T12:39:56.193Z,20.40
2018-11-29T12:42:25.256Z,22.77
2018-11-29T12:44:53.460Z,21.77
2018-11-29T12:47:21.723Z,21.10
2018-11-29T12:49:49.957Z,22.60
2018-11-29T12:52:18.131Z,21.97
2018-11-29T12:54:46.583Z,21.47
2018-11-29T12:57:14.907Z,21.10
2018-11-29T12:59:43.210Z,24.20
2018-11-29T13:02:13.366Z,22.07
2018-11-29T13:04:42.678Z,24.23
2018-11-29T13:07:11.956Z,22.30
2018-11-29T13:09:40.213Z,19.17
2018-11-29T13:12:08.552Z,21.87
2018-11-29T13:14:36.837Z,19.70
2018-11-29T13:17:05.163Z,21.87
2018-11-29T13:19:35.392Z,21.43
2018-11-29T13:22:03.603Z,18.53
2018-11-29T13:24:32.016Z,17.87
2018-11-29T13:27:00.237Z,16.93
2018-11-29T13:29:28.449Z,20.77
2018-11-29T13:31:56.656Z,21.43
2018-11-29T13:34:24.880Z,18.83
2018-11-29T13:36:53.088Z,21.73
2018-11-29T13:39:21.577Z,19.17
2018-11-29T13:41:49.739Z,17.03
2018-11-29T13:44:18.014Z,19.17
2018-11-29T13:46:46.278Z,18.33
2018-11-29T13:49:14.522Z,21.67
2018-11-29T13:51:42.704Z,20.90
2018-11-29T13:54:11.021Z,16.83
2018-11-29T13:56:44.695Z,17.47
2018-11-29T13:59:12.886Z,17.00
2018-11-29T14:01:41.230Z,18.37
2018-11-29T14:04:09.425Z,18.60
2018-11-29T14:06:37.607Z,17.13
2018-11-29T14:09:08.290Z,15.97
2018-11-29T14:11:36.507Z,18.77
2018-11-29T14:14:07.893Z,17.07
2018-11-29T14:16:32.997Z,17.13
2018-11-29T14:19:01.266Z,17.50
2018-11-29T14:21:36.172Z,16.63
2018-11-29T14:24:04.340Z,14.90
2018-11-29T14:26:32.545Z,16.03
2018-11-29T14:29:00.723Z,17.17
2018-11-29T14:31:28.895Z,13.43
2018-11-29T14:33:57.274Z,16.27
2018-11-29T14:36:25.452Z,13.23
2018-11-29T14:38:53.669Z,13.10
2018-11-29T14:41:21.895Z,14.37
2018-11-29T14:43:50.101Z,14.73
2018-11-29T14:46:18.601Z,12.23
2018-11-29T14:48:46.799Z,14.00
2018-11-29T14:51:14.997Z,14.97
2018-11-29T14:53:43.321Z,14.10
2018-11-29T14:56:11.508Z,15.67
2018-11-29T14:58:40.337Z,13.33
2018-11-29T15:01:08.631Z,12.97
2018-11-29T15:03:36.847Z,13.97
2018-11-29T15:06:05.131Z,15.97
2018-11-29T15:08:33.319Z,15.47
2018-11-29T15:11:01.694Z,13.70
2018-11-29T15:13:30.556Z,13.33
2018-11-29T15:15:58.840Z,13.63
2018-11-29T15:18:27.127Z,14.03
2018-11-29T15:20:55.302Z,13.13
2018-11-29T15:23:23.515Z,12.47
2018-11-29T15:25:52.566Z,11.90
2018-11-29T15:28:20.777Z,12.43
2018-11-29T15:30:49.004Z,15.07
2018-11-29T15:33:17.300Z,12.97
2018-11-29T15:35:45.508Z,13.97
2018-11-29T15:38:13.848Z,12.37
2018-11-29T15:40:42.998Z,11.20
2018-11-29T15:43:11.341Z,10.87
2018-11-29T15:45:39.502Z,12.70
2018-11-29T15:48:07.701Z,12.10
2018-11-29T15:50:35.888Z,11.80
2018-11-29T15:53:04.081Z,11.70
2018-11-29T15:55:32.210Z,10.50
2018-11-29T15:58:00.708Z,10.60
2018-11-29T16:00:29.603Z,13.33
2018-11-29T16:02:58.957Z,10.57
2018-11-29T16:05:27.217Z,10.73
2018-11-29T16:07:55.396Z,10.83
2018-11-29T16:10:24.521Z,10.53
2018-11-29T16:12:52.759Z,11.70
2018-11-29T16:15:21.442Z,9.90
2018-11-29T16:17:50.511Z,11.10
2018-11-29T16:20:23.671Z,10.97
2018-11-29T16:22:51.894Z,11.07
2018-11-29T16:25:20.303Z,11.63
2018-11-29T16:27:48.558Z,11.63
2018-11-29T16:30:26.072Z,10.80
2018-11-29T16:32:54.967Z,10.80
2018-11-29T16:35:23.321Z,10.10
2018-11-29T16:37:51.720Z,11.30
2018-11-29T16:40:19.925Z,11.10
2018-11-29T16:42:48.106Z,11.17
2018-11-29T16:45:16.288Z,9.07
2018-11-29T16:47:44.483Z,10.87
2018-11-29T16:50:15.672Z,10.40
2018-11-29T16:52:43.876Z,10.17
2018-11-29T16:55:12.515Z,10.30
2018-11-29T16:57:44.638Z,10.63
2018-11-29T17:00:17.761Z,9.93
2018-11-29T17:02:45.958Z,10.03
2018-11-29T17:05:14.592Z,10.03
2018-11-29T17:07:42.873Z,11.50
2018-11-29T17:10:12.258Z,10.63
2018-11-29T17:12:40.722Z,10.33
2018-11-29T17:15:10.717Z,9.53
2018-11-29T17:17:38.907Z,10.27
2018-11-29T17:20:11.762Z,9.70
2018-11-29T17:22:41.130Z,9.53
2018-11-29T17:25:11.126Z,9.20
2018-11-29T17:27:39.454Z,9.47
2018-11-29T17:30:17.458Z,9.83
2018-11-29T17:32:45.810Z,9.67
2018-11-29T17:35:13.983Z,8.60
2018-11-29T17:37:42.214Z,9.90
2018-11-29T17:40:13.544Z,8.70
2018-11-29T17:42:41.842Z,10.33
2018-11-29T17:45:11.262Z,10.57
2018-11-29T17:47:39.620Z,8.27
2018-11-29T17:50:11.382Z,9.53
2018-11-29T17:52:39.727Z,9.57
2018-11-29T17:55:07.950Z,10.87
2018-11-29T17:57:36.138Z,9.57
2018-11-29T18:00:07.200Z,9.07
2018-11-29T18:02:35.574Z,9.63
2018-11-29T18:05:03.838Z,9.20
2018-11-29T18:07:32.379Z,9.67
2018-11-29T18:10:00.802Z,9.60
2018-11-29T18:12:30.014Z,8.80
2018-11-29T18:14:59.191Z,9.37
2018-11-29T18:17:28.315Z,9.13
2018-11-29T18:20:04.861Z,9.47
2018-11-29T18:22:33.836Z,8.23
2018-11-29T18:25:02.853Z,10.33
2018-11-29T18:27:31.717Z,9.67
2018-11-29T18:29:59.904Z,9.83
2018-11-29T18:32:28.174Z,9.73
2018-11-29T18:34:56.487Z,10.07
2018-11-29T18:37:24.677Z,8.90
2018-11-29T18:39:52.875Z,10.93
2018-11-29T18:42:21.807Z,9.23
2018-11-29T18:44:50.090Z,8.93
2018-11-29T18:47:18.290Z,8.57
2018-11-29T18:49:47.275Z,9.47
2018-11-29T18:52:15.586Z,9.33
2018-11-29T18:54:43.856Z,10.10
2018-11-29T18:57:22.342Z,9.90
2018-11-29T18:59:50.599Z,8.60
2018-11-29T19:02:18.805Z,8.57
2018-11-29T19:04:47.064Z,9.43
2018-11-29T19:07:15.379Z,9.23
2018-11-29T19:09:43.830Z,8.57
2018-11-29T19:12:12.161Z,7.97
2018-11-29T19:14:42.859Z,8.50
2018-11-29T19:17:11.109Z,8.70
2018-11-29T19:19:39.495Z,7.40
2018-11-29T19:22:08.685Z,8.10
2018-11-29T19:24:36.985Z,8.50
2018-11-29T19:27:05.411Z,9.07
2018-11-29T19:29:39.504Z,9.20
2018-11-29T19:32:07.736Z,8.57
2018-11-29T19:34:36.197Z,10.13
2018-11-29T19:37:04.408Z,8.70
2018-11-29T19:39:32.683Z,7.80
2018-11-29T19:42:00.893Z,8.73
2018-11-29T19:44:29.047Z,9.10
2018-11-29T19:47:02.038Z,9.20
2018-11-29T19:49:30.612Z,10.07
2018-11-29T19:51:58.989Z,8.23
2018-11-29T19:54:27.218Z,8.63
2018-11-29T19:56:55.497Z,8.57
2018-11-29T19:59:24.180Z,7.40
2018-11-29T20:01:52.443Z,9.23
2018-11-29T20:04:20.646Z,8.50
2018-11-29T20:06:48.980Z,7.57
2018-11-29T20:09:17.189Z,7.03
2018-11-29T20:11:45.607Z,7.20
2018-11-29T20:14:13.850Z,7.90
2018-11-29T20:16:42.373Z,8.80
2018-11-29T20:19:10.581Z,7.90
2018-11-29T20:21:38.766Z,6.93
2018-11-29T20:24:06.974Z,6.93
2018-11-29T20:26:35.224Z,7.57
2018-11-29T20:29:03.781Z,8.87
2018-11-29T20:31:32.158Z,8.07
2018-11-29T20:34:00.385Z,7.43
2018-11-29T20:36:28.601Z,7.40
2018-11-29T20:38:57.149Z,7.50
2018-11-29T20:41:25.946Z,7.73
2018-11-29T20:43:54.198Z,7.77
2018-11-29T20:46:22.426Z,8.30
2018-11-29T20:48:50.684Z,7.40
2018-11-29T20:51:18.827Z,7.33
2018-11-29T20:53:47.122Z,7.23
2018-11-29T20:56:15.690Z,7.40
2018-11-29T20:58:43.991Z,10.00
2018-11-29T21:01:12.383Z,6.50
2018-11-29T21:03:40.636Z,8.20
2018-11-29T21:06:10.861Z,7.50
2018-11-29T21:08:39.126Z,7.87
2018-11-29T21:11:07.870Z,7.83
2018-11-29T21:13:36.208Z,8.20
2018-11-29T21:16:04.467Z,7.73
2018-11-29T21:18:32.738Z,7.07
2018-11-29T21:21:00.917Z,7.97
2018-11-29T21:23:29.251Z,7.77
2018-11-29T21:25:57.532Z,7.13
2018-11-29T21:28:25.681Z,6.63
2018-11-29T21:30:53.857Z,7.73
2018-11-29T21:33:22.138Z,7.20
2018-11-29T21:35:50.350Z,6.87
2018-11-29T21:38:19.674Z,6.73
2018-11-29T21:40:56.723Z,7.87
2018-11-29T21:43:24.914Z,7.03
2018-11-29T21:45:53.111Z,7.67
2018-11-29T21:48:21.373Z,7.83
2018-11-29T21:50:49.584Z,7.63
2018-11-29T21:53:17.790Z,7.10
2018-11-29T21:55:46.049Z,7.23
2018-11-29T21:58:14.234Z,7.40
2018-11-29T22:00:44.060Z,7.50
2018-11-29T22:04:24.315Z,7.13
2018-11-29T22:06:52.689Z,6.80
2018-11-29T22:09:21.125Z,7.23
2018-11-29T22:11:49.439Z,6.13
2018-11-29T22:14:20.349Z,7.07
2018-11-29T22:16:48.710Z,7.27
2018-11-29T22:19:16.945Z,6.97
2018-11-29T22:21:45.175Z,6.80
2018-11-29T22:24:15.443Z,6.13
2018-11-29T22:27:11.133Z,6.60
2018-11-29T22:29:41.280Z,6.70
2018-11-29T22:32:09.550Z,6.17
2018-11-29T22:34:46.150Z,6.10
2018-11-29T22:37:15.181Z,6.43
2018-11-29T22:39:43.503Z,6.30
2018-11-29T22:42:19.934Z,6.37
2018-11-29T22:44:50.214Z,6.20
2018-11-29T23:03:36.123Z,5.90
2018-11-29T23:06:07.072Z,6.30
2018-11-29T23:08:35.669Z,5.70
2018-11-29T23:11:03.958Z,5.43
2018-11-29T23:13:32.111Z,6.13
2018-11-29T23:16:00.325Z,5.57
2018-11-29T23:18:28.765Z,5.70
2018-11-29T23:20:56.993Z,6.20
2018-11-29T23:23:25.191Z,5.60
2018-11-29T23:25:53.393Z,6.40
2018-11-29T23:28:23.105Z,5.70
2018-11-29T23:30:51.322Z,5.43
2018-11-29T23:33:20.030Z,5.47
2018-11-29T23:35:48.245Z,5.17
2018-11-29T23:38:16.782Z,5.50
2018-11-29T23:40:45.644Z,5.37
2018-11-29T23:43:16.067Z,5.27
2018-11-29T23:45:44.327Z,5.43
2018-11-29T23:48:12.543Z,5.70
2018-11-29T23:50:40.873Z,5.93
2018-11-29T23:53:09.275Z,5.27
2018-11-29T23:58:11.826Z,5.60
